sensor_id;sensor_type;location;lat;lon;timestamp;P1;durP1;ratioP1;P2;durP2;ratioP2
1987;SDS011;12775;46.994;15.498;2023-04-10T00:01:12;12.32;;;7.28;;
1987;SDS011;12775;46.994;15.498;2023-04-10T00:03:40;10.02;;;7.74;;
1987;SDS011;12775;46.994;15.498;2023-04-10T00:06:07;7.64;;;6.70;;
1987;SDS011;12775;46.994;15.498;2023-04-10T00:08:34;23.16;;;6.84;;
1987;SDS011;12775;46.994;15.498;2023-04-10T00:11:03;7.82;;;7.06;;
1987;SDS011;12775;46.994;15.498;2023-04-10T00:13:31;8.74;;;6.12;;
1987;SDS011;12775;46.994;15.498;2023-04-10T00:15:59;12.38;;;6.68;;
1987;SDS011;12775;46.994;15.498;2023-04-10T00:18:26;6.18;;;5.60;;
1987;SDS011;12775;46.994;15.498;2023-04-10T00:20:54;6.64;;;5.70;;
1987;SDS011;12775;46.994;15.498;2023-04-10T00:23:21;6.90;;;5.24;;
1987;SDS011;12775;46.994;15.498;2023-04-10T00:25:48;5.72;;;5.10;;
1987;SDS011;12775;46.994;15.498;2023-04-10T00:28:16;5.42;;;4.90;;
1987;SDS011;12775;46.994;15.498;2023-04-10T00:30:43;7.02;;;6.32;;
1987;SDS011;12775;46.994;15.498;2023-04-10T00:33:10;6.74;;;5.36;;
1987;SDS011;12775;46.994;15.498;2023-04-10T00:35:38;5.30;;;4.90;;
1987;SDS011;12775;46.994;15.498;2023-04-10T00:38:06;5.18;;;4.68;;
1987;SDS011;12775;46.994;15.498;2023-04-10T00:40:33;5.80;;;5.30;;
1987;SDS011;12775;46.994;15.498;2023-04-10T00:43:01;6.18;;;5.20;;
1987;SDS011;12775;46.994;15.498;2023-04-10T00:45:28;6.22;;;5.58;;
1987;SDS011;12775;46.994;15.498;2023-04-10T00:47:55;6.06;;;5.48;;
1987;SDS011;12775;46.994;15.498;2023-04-10T00:50:23;6.94;;;6.22;;
1987;SDS011;12775;46.994;15.498;2023-04-10T00:52:50;6.38;;;5.78;;
1987;SDS011;12775;46.994;15.498;2023-04-10T00:55:18;7.76;;;6.82;;
1987;SDS011;12775;46.994;15.498;2023-04-10T00:57:45;7.02;;;6.20;;
1987;SDS011;12775;46.994;15.498;2023-04-10T01:00:13;7.70;;;7.00;;
1987;SDS011;12775;46.994;15.498;2023-04-10T01:02:40;6.42;;;5.82;;
1987;SDS011;12775;46.994;15.498;2023-04-10T01:05:07;6.90;;;6.12;;
1987;SDS011;12775;46.994;15.498;2023-04-10T01:10:26;6.20;;;5.58;;
1987;SDS011;12775;46.994;15.498;2023-04-10T01:12:50;7.20;;;5.60;;
1987;SDS011;12775;46.994;15.498;2023-04-10T01:15:15;5.48;;;4.98;;
1987;SDS011;12775;46.994;15.498;2023-04-10T01:17:49;6.42;;;5.82;;
1987;SDS011;12775;46.994;15.498;2023-04-10T01:20:31;6.20;;;5.34;;
1987;SDS011;12775;46.994;15.498;2023-04-10T01:23:05;8.04;;;6.60;;
1987;SDS011;12775;46.994;15.498;2023-04-10T01:26:03;7.32;;;5.74;;
1987;SDS011;12775;46.994;15.498;2023-04-10T01:28:41;8.32;;;5.80;;
1987;SDS011;12775;46.994;15.498;2023-04-10T01:31:04;8.98;;;6.68;;
1987;SDS011;12775;46.994;15.498;2023-04-10T01:33:37;10.68;;;7.22;;
1987;SDS011;12775;46.994;15.498;2023-04-10T01:35:59;7.10;;;6.42;;
1987;SDS011;12775;46.994;15.498;2023-04-10T01:38:26;6.26;;;5.66;;
1987;SDS011;12775;46.994;15.498;2023-04-10T01:40:53;6.30;;;5.70;;
1987;SDS011;12775;46.994;15.498;2023-04-10T01:43:21;6.90;;;6.20;;
1987;SDS011;12775;46.994;15.498;2023-04-10T01:45:48;7.56;;;6.68;;
1987;SDS011;12775;46.994;15.498;2023-04-10T01:48:16;7.76;;;6.32;;
1987;SDS011;12775;46.994;15.498;2023-04-10T01:50:44;7.82;;;7.02;;
1987;SDS011;12775;46.994;15.498;2023-04-10T01:53:11;6.52;;;5.92;;
1987;SDS011;12775;46.994;15.498;2023-04-10T01:55:38;6.92;;;6.22;;
1987;SDS011;12775;46.994;15.498;2023-04-10T01:58:05;6.40;;;5.72;;
1987;SDS011;12775;46.994;15.498;2023-04-10T02:00:36;6.28;;;5.68;;
1987;SDS011;12775;46.994;15.498;2023-04-10T02:03:03;6.44;;;5.84;;
1987;SDS011;12775;46.994;15.498;2023-04-10T02:05:33;9.92;;;7.18;;
1987;SDS011;12775;46.994;15.498;2023-04-10T02:08:03;6.94;;;6.26;;
1987;SDS011;12775;46.994;15.498;2023-04-10T02:10:29;8.94;;;7.46;;
1987;SDS011;12775;46.994;15.498;2023-04-10T02:12:58;7.50;;;6.12;;
1987;SDS011;12775;46.994;15.498;2023-04-10T02:15:22;6.70;;;5.86;;
1987;SDS011;12775;46.994;15.498;2023-04-10T02:17:49;8.00;;;6.40;;
1987;SDS011;12775;46.994;15.498;2023-04-10T02:20:16;6.98;;;6.32;;
1987;SDS011;12775;46.994;15.498;2023-04-10T02:22:44;6.36;;;5.84;;
1987;SDS011;12775;46.994;15.498;2023-04-10T02:25:12;6.80;;;6.16;;
1987;SDS011;12775;46.994;15.498;2023-04-10T02:27:40;7.12;;;6.06;;
1987;SDS011;12775;46.994;15.498;2023-04-10T02:30:07;7.64;;;6.44;;
1987;SDS011;12775;46.994;15.498;2023-04-10T02:32:36;8.24;;;7.28;;
1987;SDS011;12775;46.994;15.498;2023-04-10T02:35:03;5.94;;;5.44;;
1987;SDS011;12775;46.994;15.498;2023-04-10T02:37:30;8.40;;;7.26;;
1987;SDS011;12775;46.994;15.498;2023-04-10T02:39:57;6.98;;;6.28;;
1987;SDS011;12775;46.994;15.498;2023-04-10T02:42:23;7.12;;;5.90;;
1987;SDS011;12775;46.994;15.498;2023-04-10T02:44:50;7.96;;;6.26;;
1987;SDS011;12775;46.994;15.498;2023-04-10T02:47:16;7.48;;;6.64;;
1987;SDS011;12775;46.994;15.498;2023-04-10T02:49:44;9.90;;;6.26;;
1987;SDS011;12775;46.994;15.498;2023-04-10T02:52:11;7.60;;;6.36;;
1987;SDS011;12775;46.994;15.498;2023-04-10T02:54:39;7.26;;;6.66;;
1987;SDS011;12775;46.994;15.498;2023-04-10T02:57:06;7.76;;;7.02;;
1987;SDS011;12775;46.994;15.498;2023-04-10T02:59:33;13.58;;;7.10;;
1987;SDS011;12775;46.994;15.498;2023-04-10T03:02:00;10.18;;;8.32;;
1987;SDS011;12775;46.994;15.498;2023-04-10T03:04:27;7.46;;;6.76;;
1987;SDS011;12775;46.994;15.498;2023-04-10T03:06:55;10.02;;;6.46;;
1987;SDS011;12775;46.994;15.498;2023-04-10T03:09:22;7.14;;;6.44;;
1987;SDS011;12775;46.994;15.498;2023-04-10T03:11:49;15.60;;;8.32;;
1987;SDS011;12775;46.994;15.498;2023-04-10T03:14:17;7.66;;;6.92;;
1987;SDS011;12775;46.994;15.498;2023-04-10T03:16:44;13.50;;;7.92;;
1987;SDS011;12775;46.994;15.498;2023-04-10T03:19:12;36.54;;;10.22;;
1987;SDS011;12775;46.994;15.498;2023-04-10T03:21:39;11.62;;;8.08;;
1987;SDS011;12775;46.994;15.498;2023-04-10T03:24:06;11.24;;;7.74;;
1987;SDS011;12775;46.994;15.498;2023-04-10T03:26:33;13.08;;;9.90;;
1987;SDS011;12775;46.994;15.498;2023-04-10T03:29:01;53.42;;;9.44;;
1987;SDS011;12775;46.994;15.498;2023-04-10T03:31:28;83.08;;;10.72;;
1987;SDS011;12775;46.994;15.498;2023-04-10T03:33:57;39.70;;;8.70;;
1987;SDS011;12775;46.994;15.498;2023-04-10T03:36:23;63.52;;;9.78;;
1987;SDS011;12775;46.994;15.498;2023-04-10T03:38:50;32.98;;;8.24;;
1987;SDS011;12775;46.994;15.498;2023-04-10T03:41:18;27.46;;;7.80;;
1987;SDS011;12775;46.994;15.498;2023-04-10T03:43:44;24.76;;;6.80;;
1987;SDS011;12775;46.994;15.498;2023-04-10T03:46:11;16.28;;;6.36;;
1987;SDS011;12775;46.994;15.498;2023-04-10T03:48:39;14.64;;;6.96;;
1987;SDS011;12775;46.994;15.498;2023-04-10T03:51:06;16.02;;;6.34;;
1987;SDS011;12775;46.994;15.498;2023-04-10T03:53:33;33.36;;;6.58;;
1987;SDS011;12775;46.994;15.498;2023-04-10T03:56:01;50.66;;;8.14;;
1987;SDS011;12775;46.994;15.498;2023-04-10T03:58:28;59.10;;;8.10;;
1987;SDS011;12775;46.994;15.498;2023-04-10T04:00:55;67.12;;;8.84;;
1987;SDS011;12775;46.994;15.498;2023-04-10T04:03:23;26.72;;;7.34;;
1987;SDS011;12775;46.994;15.498;2023-04-10T04:05:50;40.36;;;7.04;;
1987;SDS011;12775;46.994;15.498;2023-04-10T04:08:18;19.42;;;6.40;;
1987;SDS011;12775;46.994;15.498;2023-04-10T04:10:45;17.30;;;6.36;;
1987;SDS011;12775;46.994;15.498;2023-04-10T04:13:13;19.52;;;6.36;;
1987;SDS011;12775;46.994;15.498;2023-04-10T04:15:41;26.54;;;5.76;;
1987;SDS011;12775;46.994;15.498;2023-04-10T04:18:08;12.22;;;6.22;;
1987;SDS011;12775;46.994;15.498;2023-04-10T04:20:34;7.82;;;5.58;;
1987;SDS011;12775;46.994;15.498;2023-04-10T04:23:01;8.18;;;4.92;;
1987;SDS011;12775;46.994;15.498;2023-04-10T04:25:28;6.96;;;4.30;;
1987;SDS011;12775;46.994;15.498;2023-04-10T04:27:56;7.10;;;5.04;;
1987;SDS011;12775;46.994;15.498;2023-04-10T04:30:23;10.18;;;5.78;;
1987;SDS011;12775;46.994;15.498;2023-04-10T04:32:51;23.46;;;6.08;;
1987;SDS011;12775;46.994;15.498;2023-04-10T04:35:18;7.90;;;5.58;;
1987;SDS011;12775;46.994;15.498;2023-04-10T04:37:45;7.48;;;4.72;;
1987;SDS011;12775;46.994;15.498;2023-04-10T04:40:13;5.50;;;3.88;;
1987;SDS011;12775;46.994;15.498;2023-04-10T04:42:40;5.30;;;4.04;;
1987;SDS011;12775;46.994;15.498;2023-04-10T04:45:08;8.26;;;5.30;;
1987;SDS011;12775;46.994;15.498;2023-04-10T04:47:35;5.12;;;4.52;;
1987;SDS011;12775;46.994;15.498;2023-04-10T04:50:03;8.22;;;4.24;;
1987;SDS011;12775;46.994;15.498;2023-04-10T04:52:29;10.30;;;5.12;;
1987;SDS011;12775;46.994;15.498;2023-04-10T04:54:57;6.42;;;4.96;;
1987;SDS011;12775;46.994;15.498;2023-04-10T04:57:24;10.94;;;5.20;;
1987;SDS011;12775;46.994;15.498;2023-04-10T04:59:52;20.00;;;5.24;;
1987;SDS011;12775;46.994;15.498;2023-04-10T05:02:20;13.54;;;5.50;;
1987;SDS011;12775;46.994;15.498;2023-04-10T05:04:47;49.46;;;8.34;;
1987;SDS011;12775;46.994;15.498;2023-04-10T05:07:15;33.62;;;6.40;;
1987;SDS011;12775;46.994;15.498;2023-04-10T05:09:42;137.88;;;12.04;;
1987;SDS011;12775;46.994;15.498;2023-04-10T05:12:09;59.64;;;8.20;;
1987;SDS011;12775;46.994;15.498;2023-04-10T05:14:37;162.10;;;14.46;;
1987;SDS011;12775;46.994;15.498;2023-04-10T05:17:04;47.26;;;7.20;;
1987;SDS011;12775;46.994;15.498;2023-04-10T05:19:31;102.70;;;10.36;;
1987;SDS011;12775;46.994;15.498;2023-04-10T05:21:59;64.00;;;7.78;;
1987;SDS011;12775;46.994;15.498;2023-04-10T05:24:26;22.26;;;6.40;;
1987;SDS011;12775;46.994;15.498;2023-04-10T05:26:53;23.56;;;6.58;;
1987;SDS011;12775;46.994;15.498;2023-04-10T05:29:21;14.86;;;6.38;;
1987;SDS011;12775;46.994;15.498;2023-04-10T05:31:47;6.34;;;5.12;;
1987;SDS011;12775;46.994;15.498;2023-04-10T05:34:14;18.42;;;6.84;;
1987;SDS011;12775;46.994;15.498;2023-04-10T05:36:41;19.32;;;6.04;;
1987;SDS011;12775;46.994;15.498;2023-04-10T05:39:08;10.88;;;5.88;;
1987;SDS011;12775;46.994;15.498;2023-04-10T05:41:35;28.64;;;6.32;;
1987;SDS011;12775;46.994;15.498;2023-04-10T05:44:03;7.82;;;4.62;;
1987;SDS011;12775;46.994;15.498;2023-04-10T05:46:30;11.54;;;5.12;;
1987;SDS011;12775;46.994;15.498;2023-04-10T05:48:58;13.48;;;5.68;;
1987;SDS011;12775;46.994;15.498;2023-04-10T05:51:26;7.30;;;5.62;;
1987;SDS011;12775;46.994;15.498;2023-04-10T05:53:53;7.18;;;4.92;;
1987;SDS011;12775;46.994;15.498;2023-04-10T05:56:21;7.62;;;5.80;;
1987;SDS011;12775;46.994;15.498;2023-04-10T05:58:48;11.02;;;5.74;;
1987;SDS011;12775;46.994;15.498;2023-04-10T06:01:15;19.56;;;5.82;;
1987;SDS011;12775;46.994;15.498;2023-04-10T06:03:43;6.12;;;5.52;;
1987;SDS011;12775;46.994;15.498;2023-04-10T06:06:09;8.04;;;6.76;;
1987;SDS011;12775;46.994;15.498;2023-04-10T06:08:37;11.88;;;7.40;;
1987;SDS011;12775;46.994;15.498;2023-04-10T06:11:05;8.04;;;7.04;;
1987;SDS011;12775;46.994;15.498;2023-04-10T06:13:32;6.74;;;6.14;;
1987;SDS011;12775;46.994;15.498;2023-04-10T06:16:01;6.72;;;6.16;;
1987;SDS011;12775;46.994;15.498;2023-04-10T06:18:28;7.72;;;6.92;;
1987;SDS011;12775;46.994;15.498;2023-04-10T06:20:56;8.00;;;7.20;;
1987;SDS011;12775;46.994;15.498;2023-04-10T06:23:23;11.18;;;10.08;;
1987;SDS011;12775;46.994;15.498;2023-04-10T06:25:50;9.48;;;8.56;;
1987;SDS011;12775;46.994;15.498;2023-04-10T06:28:19;9.10;;;8.18;;
1987;SDS011;12775;46.994;15.498;2023-04-10T06:30:46;7.62;;;6.92;;
1987;SDS011;12775;46.994;15.498;2023-04-10T06:33:13;9.20;;;8.30;;
1987;SDS011;12775;46.994;15.498;2023-04-10T06:35:41;8.28;;;7.58;;
1987;SDS011;12775;46.994;15.498;2023-04-10T06:38:08;7.90;;;7.12;;
1987;SDS011;12775;46.994;15.498;2023-04-10T06:40:35;7.60;;;6.88;;
1987;SDS011;12775;46.994;15.498;2023-04-10T06:43:03;9.64;;;6.90;;
1987;SDS011;12775;46.994;15.498;2023-04-10T06:45:30;7.76;;;6.70;;
1987;SDS011;12775;46.994;15.498;2023-04-10T06:47:58;7.52;;;6.14;;
1987;SDS011;12775;46.994;15.498;2023-04-10T06:50:25;7.40;;;6.68;;
1987;SDS011;12775;46.994;15.498;2023-04-10T06:52:53;8.04;;;7.36;;
1987;SDS011;12775;46.994;15.498;2023-04-10T06:55:22;7.46;;;6.80;;
1987;SDS011;12775;46.994;15.498;2023-04-10T06:57:49;7.26;;;6.56;;
1987;SDS011;12775;46.994;15.498;2023-04-10T07:00:17;7.06;;;6.36;;
1987;SDS011;12775;46.994;15.498;2023-04-10T07:02:44;8.34;;;7.48;;
1987;SDS011;12775;46.994;15.498;2023-04-10T07:05:12;7.08;;;6.30;;
1987;SDS011;12775;46.994;15.498;2023-04-10T07:07:39;7.66;;;6.96;;
1987;SDS011;12775;46.994;15.498;2023-04-10T07:10:06;7.36;;;6.66;;
1987;SDS011;12775;46.994;15.498;2023-04-10T07:12:34;6.68;;;6.08;;
1987;SDS011;12775;46.994;15.498;2023-04-10T07:15:02;7.52;;;6.80;;
1987;SDS011;12775;46.994;15.498;2023-04-10T07:17:29;7.70;;;6.86;;
1987;SDS011;12775;46.994;15.498;2023-04-10T07:19:56;8.28;;;6.76;;
1987;SDS011;12775;46.994;15.498;2023-04-10T07:22:25;7.24;;;6.54;;
1987;SDS011;12775;46.994;15.498;2023-04-10T07:24:52;7.90;;;7.20;;
1987;SDS011;12775;46.994;15.498;2023-04-10T07:27:21;7.70;;;6.94;;
1987;SDS011;12775;46.994;15.498;2023-04-10T07:29:52;8.10;;;7.26;;
1987;SDS011;12775;46.994;15.498;2023-04-10T07:32:17;7.98;;;7.18;;
1987;SDS011;12775;46.994;15.498;2023-04-10T07:34:44;8.38;;;7.22;;
1987;SDS011;12775;46.994;15.498;2023-04-10T07:37:11;8.38;;;7.58;;
1987;SDS011;12775;46.994;15.498;2023-04-10T07:39:38;7.76;;;7.02;;
1987;SDS011;12775;46.994;15.498;2023-04-10T07:42:05;8.26;;;7.48;;
1987;SDS011;12775;46.994;15.498;2023-04-10T07:44:33;8.78;;;7.92;;
1987;SDS011;12775;46.994;15.498;2023-04-10T07:47:00;8.46;;;7.60;;
1987;SDS011;12775;46.994;15.498;2023-04-10T07:49:27;10.04;;;7.38;;
1987;SDS011;12775;46.994;15.498;2023-04-10T07:51:55;8.06;;;7.26;;
1987;SDS011;12775;46.994;15.498;2023-04-10T07:54:22;8.68;;;7.92;;
1987;SDS011;12775;46.994;15.498;2023-04-10T07:56:51;8.26;;;7.50;;
1987;SDS011;12775;46.994;15.498;2023-04-10T07:59:18;8.24;;;7.44;;
1987;SDS011;12775;46.994;15.498;2023-04-10T08:01:45;7.36;;;6.72;;
1987;SDS011;12775;46.994;15.498;2023-04-10T08:04:12;10.36;;;7.30;;
1987;SDS011;12775;46.994;15.498;2023-04-10T08:06:40;7.72;;;7.02;;
1987;SDS011;12775;46.994;15.498;2023-04-10T08:09:08;8.42;;;7.62;;
1987;SDS011;12775;46.994;15.498;2023-04-10T08:11:35;7.60;;;6.88;;
1987;SDS011;12775;46.994;15.498;2023-04-10T08:14:02;7.80;;;7.02;;
1987;SDS011;12775;46.994;15.498;2023-04-10T08:16:29;9.82;;;8.84;;
1987;SDS011;12775;46.994;15.498;2023-04-10T08:18:57;8.34;;;7.54;;
1987;SDS011;12775;46.994;15.498;2023-04-10T08:21:24;7.86;;;7.26;;
1987;SDS011;12775;46.994;15.498;2023-04-10T08:23:52;8.26;;;7.50;;
1987;SDS011;12775;46.994;15.498;2023-04-10T08:26:20;8.12;;;7.38;;
1987;SDS011;12775;46.994;15.498;2023-04-10T08:28:48;7.06;;;6.10;;
1987;SDS011;12775;46.994;15.498;2023-04-10T08:31:15;8.70;;;7.98;;
1987;SDS011;12775;46.994;15.498;2023-04-10T08:33:43;9.06;;;7.02;;
1987;SDS011;12775;46.994;15.498;2023-04-10T08:36:11;7.18;;;6.56;;
1987;SDS011;12775;46.994;15.498;2023-04-10T08:38:38;8.10;;;7.30;;
1987;SDS011;12775;46.994;15.498;2023-04-10T08:41:05;7.84;;;6.26;;
1987;SDS011;12775;46.994;15.498;2023-04-10T08:43:34;7.26;;;6.64;;
1987;SDS011;12775;46.994;15.498;2023-04-10T08:46:02;7.16;;;6.46;;
1987;SDS011;12775;46.994;15.498;2023-04-10T08:48:30;6.26;;;5.66;;
1987;SDS011;12775;46.994;15.498;2023-04-10T08:50:58;6.92;;;6.32;;
1987;SDS011;12775;46.994;15.498;2023-04-10T08:53:25;7.52;;;6.78;;
1987;SDS011;12775;46.994;15.498;2023-04-10T08:55:52;7.12;;;6.42;;
1987;SDS011;12775;46.994;15.498;2023-04-10T08:58:19;8.12;;;5.62;;
1987;SDS011;12775;46.994;15.498;2023-04-10T09:00:48;7.40;;;6.70;;
1987;SDS011;12775;46.994;15.498;2023-04-10T09:03:15;8.30;;;7.50;;
1987;SDS011;12775;46.994;15.498;2023-04-10T09:05:42;7.08;;;6.40;;
1987;SDS011;12775;46.994;15.498;2023-04-10T09:08:10;7.92;;;7.20;;
1987;SDS011;12775;46.994;15.498;2023-04-10T09:10:38;8.64;;;6.74;;
1987;SDS011;12775;46.994;15.498;2023-04-10T09:13:06;7.94;;;7.18;;
1987;SDS011;12775;46.994;15.498;2023-04-10T09:18:24;7.34;;;6.64;;
1987;SDS011;12775;46.994;15.498;2023-04-10T09:20:50;12.34;;;7.24;;
1987;SDS011;12775;46.994;15.498;2023-04-10T09:23:18;8.58;;;7.00;;
1987;SDS011;12775;46.994;15.498;2023-04-10T09:25:47;9.38;;;8.04;;
1987;SDS011;12775;46.994;15.498;2023-04-10T09:28:14;8.24;;;7.00;;
1987;SDS011;12775;46.994;15.498;2023-04-10T09:30:43;9.16;;;8.34;;
1987;SDS011;12775;46.994;15.498;2023-04-10T09:33:19;6.88;;;6.28;;
1987;SDS011;12775;46.994;15.498;2023-04-10T09:35:46;8.30;;;7.40;;
1987;SDS011;12775;46.994;15.498;2023-04-10T09:38:14;8.10;;;7.30;;
1987;SDS011;12775;46.994;15.498;2023-04-10T09:40:44;7.40;;;6.80;;
1987;SDS011;12775;46.994;15.498;2023-04-10T09:43:23;8.16;;;7.36;;
1987;SDS011;12775;46.994;15.498;2023-04-10T09:45:51;8.46;;;7.34;;
1987;SDS011;12775;46.994;15.498;2023-04-10T09:48:18;7.00;;;6.36;;
1987;SDS011;12775;46.994;15.498;2023-04-10T09:50:45;7.96;;;7.26;;
1987;SDS011;12775;46.994;15.498;2023-04-10T09:53:14;8.06;;;7.04;;
1987;SDS011;12775;46.994;15.498;2023-04-10T09:55:40;7.02;;;6.32;;
1987;SDS011;12775;46.994;15.498;2023-04-10T09:58:08;7.90;;;7.10;;
1987;SDS011;12775;46.994;15.498;2023-04-10T10:00:37;9.40;;;8.56;;
1987;SDS011;12775;46.994;15.498;2023-04-10T10:03:07;7.92;;;7.12;;
1987;SDS011;12775;46.994;15.498;2023-04-10T10:05:35;7.24;;;6.54;;
1987;SDS011;12775;46.994;15.498;2023-04-10T10:08:02;8.14;;;7.44;;
1987;SDS011;12775;46.994;15.498;2023-04-10T10:10:29;7.62;;;6.98;;
1987;SDS011;12775;46.994;15.498;2023-04-10T10:12:56;8.18;;;6.28;;
1987;SDS011;12775;46.994;15.498;2023-04-10T10:15:30;8.18;;;6.74;;
1987;SDS011;12775;46.994;15.498;2023-04-10T10:20:30;7.36;;;6.78;;
1987;SDS011;12775;46.994;15.498;2023-04-10T10:22:57;7.36;;;6.70;;
1987;SDS011;12775;46.994;15.498;2023-04-10T10:25:24;7.04;;;6.44;;
1987;SDS011;12775;46.994;15.498;2023-04-10T10:27:51;7.00;;;6.40;;
1987;SDS011;12775;46.994;15.498;2023-04-10T10:30:19;8.82;;;6.72;;
1987;SDS011;12775;46.994;15.498;2023-04-10T10:32:46;8.90;;;7.10;;
1987;SDS011;12775;46.994;15.498;2023-04-10T10:35:14;9.54;;;8.06;;
1987;SDS011;12775;46.994;15.498;2023-04-10T10:37:42;8.30;;;7.46;;
1987;SDS011;12775;46.994;15.498;2023-04-10T10:40:11;6.66;;;6.00;;
1987;SDS011;12775;46.994;15.498;2023-04-10T10:42:40;7.34;;;6.74;;
1987;SDS011;12775;46.994;15.498;2023-04-10T10:45:24;7.88;;;7.08;;
1987;SDS011;12775;46.994;15.498;2023-04-10T10:47:50;7.50;;;6.80;;
1987;SDS011;12775;46.994;15.498;2023-04-10T10:50:17;7.36;;;6.66;;
1987;SDS011;12775;46.994;15.498;2023-04-10T10:52:46;9.44;;;7.58;;
1987;SDS011;12775;46.994;15.498;2023-04-10T10:57:54;8.50;;;7.36;;
1987;SDS011;12775;46.994;15.498;2023-04-10T11:00:22;8.56;;;7.76;;
1987;SDS011;12775;46.994;15.498;2023-04-10T11:05:48;7.18;;;6.48;;
1987;SDS011;12775;46.994;15.498;2023-04-10T11:08:17;7.94;;;7.20;;
1987;SDS011;12775;46.994;15.498;2023-04-10T11:13:29;8.56;;;7.52;;
1987;SDS011;12775;46.994;15.498;2023-04-10T11:15:58;9.12;;;8.20;;
1987;SDS011;12775;46.994;15.498;2023-04-10T11:21:08;7.86;;;7.08;;
1987;SDS011;12775;46.994;15.498;2023-04-10T11:23:34;9.46;;;7.56;;
1987;SDS011;12775;46.994;15.498;2023-04-10T11:26:02;8.98;;;8.06;;
1987;SDS011;12775;46.994;15.498;2023-04-10T11:28:37;9.08;;;8.28;;
1987;SDS011;12775;46.994;15.498;2023-04-10T11:33:39;8.84;;;7.98;;
1987;SDS011;12775;46.994;15.498;2023-04-10T11:36:06;8.72;;;7.90;;
1987;SDS011;12775;46.994;15.498;2023-04-10T11:38:34;10.12;;;9.12;;
1987;SDS011;12775;46.994;15.498;2023-04-10T11:41:02;11.06;;;9.32;;
1987;SDS011;12775;46.994;15.498;2023-04-10T11:43:29;10.36;;;9.38;;
1987;SDS011;12775;46.994;15.498;2023-04-10T11:45:59;9.52;;;8.62;;
1987;SDS011;12775;46.994;15.498;2023-04-10T11:50:56;9.10;;;8.22;;
1987;SDS011;12775;46.994;15.498;2023-04-10T11:53:24;8.84;;;8.02;;
1987;SDS011;12775;46.994;15.498;2023-04-10T11:55:51;9.36;;;8.44;;
1987;SDS011;12775;46.994;15.498;2023-04-10T11:58:20;8.92;;;8.02;;
1987;SDS011;12775;46.994;15.498;2023-04-10T12:00:56;8.74;;;7.90;;
1987;SDS011;12775;46.994;15.498;2023-04-10T12:03:32;8.20;;;7.40;;
1987;SDS011;12775;46.994;15.498;2023-04-10T12:06:00;7.80;;;7.00;;
1987;SDS011;12775;46.994;15.498;2023-04-10T12:08:30;8.40;;;7.52;;
1987;SDS011;12775;46.994;15.498;2023-04-10T12:10:57;7.76;;;6.96;;
1987;SDS011;12775;46.994;15.498;2023-04-10T12:13:24;8.42;;;7.62;;
1987;SDS011;12775;46.994;15.498;2023-04-10T12:15:51;8.28;;;7.48;;
1987;SDS011;12775;46.994;15.498;2023-04-10T12:18:19;7.66;;;6.96;;
1987;SDS011;12775;46.994;15.498;2023-04-10T12:20:46;8.74;;;7.94;;
1987;SDS011;12775;46.994;15.498;2023-04-10T12:23:13;9.02;;;8.12;;
1987;SDS011;12775;46.994;15.498;2023-04-10T12:25:41;8.30;;;7.50;;
1987;SDS011;12775;46.994;15.498;2023-04-10T12:28:08;9.44;;;8.58;;
1987;SDS011;12775;46.994;15.498;2023-04-10T12:30:36;10.74;;;8.92;;
1987;SDS011;12775;46.994;15.498;2023-04-10T12:33:03;8.18;;;7.36;;
1987;SDS011;12775;46.994;15.498;2023-04-10T12:35:38;8.34;;;7.52;;
1987;SDS011;12775;46.994;15.498;2023-04-10T12:38:05;7.98;;;7.20;;
1987;SDS011;12775;46.994;15.498;2023-04-10T12:40:32;21.16;;;9.02;;
1987;SDS011;12775;46.994;15.498;2023-04-10T12:42:59;9.50;;;8.64;;
1987;SDS011;12775;46.994;15.498;2023-04-10T12:48:06;11.14;;;8.30;;
1987;SDS011;12775;46.994;15.498;2023-04-10T12:50:34;8.14;;;7.30;;
1987;SDS011;12775;46.994;15.498;2023-04-10T12:53:02;9.60;;;8.72;;
1987;SDS011;12775;46.994;15.498;2023-04-10T12:55:29;9.10;;;8.28;;
1987;SDS011;12775;46.994;15.498;2023-04-10T12:57:56;8.32;;;7.62;;
1987;SDS011;12775;46.994;15.498;2023-04-10T13:00:24;8.18;;;7.44;;
1987;SDS011;12775;46.994;15.498;2023-04-10T13:02:50;8.66;;;7.96;;
1987;SDS011;12775;46.994;15.498;2023-04-10T13:05:18;8.84;;;8.04;;
1987;SDS011;12775;46.994;15.498;2023-04-10T13:07:45;9.68;;;8.76;;
1987;SDS011;12775;46.994;15.498;2023-04-10T13:10:12;9.64;;;8.68;;
1987;SDS011;12775;46.994;15.498;2023-04-10T13:12:40;9.12;;;8.32;;
1987;SDS011;12775;46.994;15.498;2023-04-10T13:15:07;9.38;;;8.60;;
1987;SDS011;12775;46.994;15.498;2023-04-10T13:17:33;8.62;;;7.92;;
1987;SDS011;12775;46.994;15.498;2023-04-10T13:20:00;8.96;;;8.16;;
1987;SDS011;12775;46.994;15.498;2023-04-10T13:22:27;8.98;;;8.10;;
1987;SDS011;12775;46.994;15.498;2023-04-10T13:24:55;9.06;;;8.26;;
1987;SDS011;12775;46.994;15.498;2023-04-10T13:27:22;9.26;;;8.46;;
1987;SDS011;12775;46.994;15.498;2023-04-10T13:29:49;8.60;;;7.80;;
1987;SDS011;12775;46.994;15.498;2023-04-10T13:32:17;9.38;;;8.58;;
1987;SDS011;12775;46.994;15.498;2023-04-10T13:34:44;9.62;;;8.72;;
1987;SDS011;12775;46.994;15.498;2023-04-10T13:37:11;9.90;;;9.00;;
1987;SDS011;12775;46.994;15.498;2023-04-10T13:39:38;9.68;;;8.60;;
1987;SDS011;12775;46.994;15.498;2023-04-10T13:42:05;8.98;;;8.10;;
1987;SDS011;12775;46.994;15.498;2023-04-10T13:44:33;9.80;;;8.84;;
1987;SDS011;12775;46.994;15.498;2023-04-10T13:47:00;9.00;;;8.30;;
1987;SDS011;12775;46.994;15.498;2023-04-10T13:49:28;8.58;;;7.88;;
1987;SDS011;12775;46.994;15.498;2023-04-10T13:51:56;8.38;;;7.58;;
1987;SDS011;12775;46.994;15.498;2023-04-10T13:54:23;9.06;;;7.98;;
1987;SDS011;12775;46.994;15.498;2023-04-10T13:56:51;8.48;;;7.78;;
1987;SDS011;12775;46.994;15.498;2023-04-10T13:59:18;8.62;;;7.84;;
1987;SDS011;12775;46.994;15.498;2023-04-10T14:01:45;8.40;;;7.70;;
1987;SDS011;12775;46.994;15.498;2023-04-10T14:04:13;9.22;;;8.32;;
1987;SDS011;12775;46.994;15.498;2023-04-10T14:06:40;8.84;;;7.94;;
1987;SDS011;12775;46.994;15.498;2023-04-10T14:09:07;7.76;;;7.08;;
1987;SDS011;12775;46.994;15.498;2023-04-10T14:11:35;8.94;;;7.98;;
1987;SDS011;12775;46.994;15.498;2023-04-10T14:14:02;8.32;;;7.62;;
1987;SDS011;12775;46.994;15.498;2023-04-10T14:16:29;8.18;;;7.48;;
1987;SDS011;12775;46.994;15.498;2023-04-10T14:18:57;7.80;;;7.10;;
1987;SDS011;12775;46.994;15.498;2023-04-10T14:21:24;8.42;;;7.58;;
1987;SDS011;12775;46.994;15.498;2023-04-10T14:23:51;7.98;;;7.28;;
1987;SDS011;12775;46.994;15.498;2023-04-10T14:26:18;8.52;;;7.72;;
1987;SDS011;12775;46.994;15.498;2023-04-10T14:28:46;8.18;;;7.42;;
1987;SDS011;12775;46.994;15.498;2023-04-10T14:31:14;7.80;;;7.08;;
1987;SDS011;12775;46.994;15.498;2023-04-10T14:33:41;8.04;;;7.30;;
1987;SDS011;12775;46.994;15.498;2023-04-10T14:36:08;7.86;;;7.16;;
1987;SDS011;12775;46.994;15.498;2023-04-10T14:38:35;7.90;;;7.20;;
1987;SDS011;12775;46.994;15.498;2023-04-10T14:41:03;8.74;;;8.00;;
1987;SDS011;12775;46.994;15.498;2023-04-10T14:43:29;9.24;;;8.42;;
1987;SDS011;12775;46.994;15.498;2023-04-10T14:45:57;6.96;;;6.36;;
1987;SDS011;12775;46.994;15.498;2023-04-10T14:48:24;8.94;;;8.08;;
1987;SDS011;12775;46.994;15.498;2023-04-10T14:50:52;8.46;;;7.70;;
1987;SDS011;12775;46.994;15.498;2023-04-10T14:53:19;8.60;;;7.90;;
1987;SDS011;12775;46.994;15.498;2023-04-10T14:55:46;7.70;;;6.90;;
1987;SDS011;12775;46.994;15.498;2023-04-10T14:58:13;8.52;;;7.72;;
1987;SDS011;12775;46.994;15.498;2023-04-10T15:00:40;7.98;;;7.30;;
1987;SDS011;12775;46.994;15.498;2023-04-10T15:03:08;7.96;;;7.24;;
1987;SDS011;12775;46.994;15.498;2023-04-10T15:05:35;8.24;;;7.44;;
1987;SDS011;12775;46.994;15.498;2023-04-10T15:08:02;9.10;;;8.20;;
1987;SDS011;12775;46.994;15.498;2023-04-10T15:10:30;8.12;;;7.38;;
1987;SDS011;12775;46.994;15.498;2023-04-10T15:12:57;8.52;;;7.82;;
1987;SDS011;12775;46.994;15.498;2023-04-10T15:15:25;7.86;;;7.22;;